createdAt,value
2018-04-27T00:00:15.416Z,1012.55
2018-04-27T00:01:15.397Z,1012.52
2018-04-27T00:02:15.377Z,1012.52
2018-04-27T00:03:15.356Z,1012.48
2018-04-27T00:04:15.393Z,1012.54
2018-04-27T00:05:15.321Z,1012.52
2018-04-27T00:06:15.300Z,1012.53
2018-04-27T00:07:15.280Z,1012.54
2018-04-27T00:08:15.262Z,1012.52
2018-04-27T00:09:15.246Z,1012.58
2018-04-27T00:10:15.223Z,1012.59
2018-04-27T00:11:15.205Z,1012.55
2018-04-27T00:12:15.184Z,1012.56
2018-04-27T00:13:15.170Z,1012.54
2018-04-27T00:14:15.147Z,1012.43
2018-04-27T00:15:15.128Z,1012.51
2018-04-27T00:16:15.113Z,1012.56
2018-04-27T00:17:15.097Z,1012.62
2018-04-27T00:18:15.072Z,1012.63
2018-04-27T00:19:15.052Z,1012.59
2018-04-27T00:20:15.030Z,1012.53
2018-04-27T00:21:15.015Z,1012.56
2018-04-27T00:22:14.992Z,1012.56
2018-04-27T00:23:14.974Z,1012.57
2018-04-27T00:24:14.954Z,1012.51
2018-04-27T00:25:14.937Z,1012.53
2018-04-27T00:26:14.913Z,1012.54
2018-04-27T00:27:14.898Z,1012.53
2018-04-27T00:28:14.878Z,1012.57
2018-04-27T00:29:14.935Z,1012.55
2018-04-27T00:30:14.839Z,1012.56
2018-04-27T00:31:14.817Z,1012.55
2018-04-27T00:32:14.801Z,1012.54
2018-04-27T00:33:14.781Z,1012.55
2018-04-27T00:34:14.837Z,1012.56
2018-04-27T00:35:14.741Z,1012.67
2018-04-27T00:36:14.727Z,1012.63
2018-04-27T00:37:14.706Z,1012.60
2018-04-27T00:38:14.689Z,1012.56
2018-04-27T00:39:14.664Z,1012.58
2018-04-27T00:40:14.647Z,1012.60
2018-04-27T00:41:14.631Z,1012.63
2018-04-27T00:42:14.609Z,1012.61
2018-04-27T00:43:14.586Z,1012.61
2018-04-27T00:44:14.569Z,1012.57
2018-04-27T00:45:14.554Z,1012.57
2018-04-27T00:46:14.530Z,1012.58
2018-04-27T00:47:14.510Z,1012.59
2018-04-27T00:48:14.491Z,1012.56
2018-04-27T00:49:14.473Z,1012.56
2018-04-27T00:50:14.459Z,1012.52
2018-04-27T00:51:14.433Z,1012.51
2018-04-27T00:52:14.416Z,1012.50
2018-04-27T00:53:14.403Z,1012.51
2018-04-27T00:54:14.376Z,1012.50
2018-04-27T00:55:14.356Z,1012.48
2018-04-27T00:56:14.338Z,1012.49
2018-04-27T00:57:14.319Z,1012.42
2018-04-27T00:58:14.299Z,1012.40
2018-04-27T00:59:14.287Z,1012.42
2018-04-27T01:00:14.261Z,1012.44
2018-04-27T01:01:14.243Z,1012.44
2018-04-27T01:02:14.228Z,1012.43
2018-04-27T01:03:14.205Z,1012.44
2018-04-27T01:04:14.185Z,1012.43
2018-04-27T01:05:14.166Z,1012.42
2018-04-27T01:06:14.149Z,1012.38
2018-04-27T01:07:14.128Z,1012.42
2018-04-27T01:08:14.109Z,1012.42
2018-04-27T01:09:14.090Z,1012.41
2018-04-27T01:10:14.072Z,1012.40
2018-04-27T01:11:14.052Z,1012.37
2018-04-27T01:12:14.082Z,1012.35
2018-04-27T01:13:14.014Z,1012.35
2018-04-27T01:14:13.994Z,1012.35
2018-04-27T01:15:13.975Z,1012.35
2018-04-27T01:16:13.956Z,1012.32
2018-04-27T01:17:13.937Z,1012.30
2018-04-27T01:18:13.919Z,1012.32
2018-04-27T01:19:13.899Z,1012.26
2018-04-27T01:20:13.883Z,1012.30
2018-04-27T01:21:13.863Z,1012.35
2018-04-27T01:22:13.843Z,1012.35
2018-04-27T01:23:13.824Z,1012.35
2018-04-27T01:24:13.809Z,1012.33
2018-04-27T01:25:13.795Z,1012.38
2018-04-27T01:26:13.769Z,1012.37
2018-04-27T01:27:13.746Z,1012.42
2018-04-27T01:28:13.728Z,1012.40
2018-04-27T01:29:13.708Z,1012.40
2018-04-27T01:30:13.691Z,1012.43
2018-04-27T01:31:13.669Z,1012.44
2018-04-27T01:32:13.653Z,1012.46
2018-04-27T01:33:13.631Z,1012.43
2018-04-27T01:34:13.614Z,1012.42
2018-04-27T01:35:13.592Z,1012.41
2018-04-27T01:36:13.572Z,1012.43
2018-04-27T01:37:13.554Z,1012.41
2018-04-27T01:38:13.532Z,1012.43
2018-04-27T01:39:13.517Z,1012.50
2018-04-27T01:40:13.495Z,1012.48
2018-04-27T01:41:13.476Z,1012.55
2018-04-27T01:42:13.457Z,1012.51
2018-04-27T01:43:13.447Z,1012.50
2018-04-27T01:44:13.419Z,1012.49
2018-04-27T01:45:13.400Z,1012.43
2018-04-27T01:46:13.380Z,1012.43
2018-04-27T01:47:13.363Z,1012.41
2018-04-27T01:48:13.342Z,1012.43
2018-04-27T01:49:13.325Z,1012.41
2018-04-27T01:50:13.309Z,1012.43
2018-04-27T01:51:13.284Z,1012.40
2018-04-27T01:52:13.267Z,1012.41
2018-04-27T01:53:13.247Z,1012.43
2018-04-27T01:54:13.229Z,1012.42
2018-04-27T01:55:13.217Z,1012.48
2018-04-27T01:56:13.189Z,1012.49
2018-04-27T01:57:13.172Z,1012.46
2018-04-27T01:58:13.152Z,1012.47
2018-04-27T01:59:13.131Z,1012.52
2018-04-27T02:00:13.112Z,1012.49
2018-04-27T02:01:13.095Z,1012.48
2018-04-27T02:02:13.075Z,1012.50
2018-04-27T02:03:13.056Z,1012.41
2018-04-27T02:04:13.037Z,1012.38
2018-04-27T02:05:13.016Z,1012.38
2018-04-27T02:06:12.996Z,1012.37
2018-04-27T02:07:12.975Z,1012.39
2018-04-27T02:08:12.959Z,1012.43
2018-04-27T02:09:12.941Z,1012.38
2018-04-27T02:10:12.921Z,1012.42
2018-04-27T02:11:12.904Z,1012.39
2018-04-27T02:12:12.881Z,1012.39
2018-04-27T02:13:12.862Z,1012.45
2018-04-27T02:14:12.841Z,1012.43
2018-04-27T02:15:12.821Z,1012.40
2018-04-27T02:16:12.803Z,1012.41
2018-04-27T02:17:12.786Z,1012.37
2018-04-27T02:18:12.764Z,1012.38
2018-04-27T02:19:12.747Z,1012.39
2018-04-27T02:20:12.726Z,1012.38
2018-04-27T02:21:12.713Z,1012.41
2018-04-27T02:22:12.689Z,1012.40
2018-04-27T02:23:12.670Z,1012.39
2018-04-27T02:24:12.651Z,1012.38
2018-04-27T02:25:12.630Z,1012.37
2018-04-27T02:26:12.608Z,1012.40
2018-04-27T02:27:12.590Z,1012.43
2018-04-27T02:28:12.572Z,1012.42
2018-04-27T02:29:12.554Z,1012.44
2018-04-27T02:30:12.534Z,1012.43
2018-04-27T02:31:12.513Z,1012.44
2018-04-27T02:32:12.493Z,1012.46
2018-04-27T02:33:12.483Z,1012.46
2018-04-27T02:34:12.463Z,1012.48
2018-04-27T02:35:12.435Z,1012.46
2018-04-27T02:36:12.416Z,1012.50
2018-04-27T02:37:12.400Z,1012.48
2018-04-27T02:38:12.374Z,1012.47
2018-04-27T02:39:12.355Z,1012.48
2018-04-27T02:40:12.337Z,1012.48
2018-04-27T02:41:12.316Z,1012.48
2018-04-27T02:42:12.297Z,1012.49
2018-04-27T02:43:12.277Z,1012.49
2018-04-27T02:44:12.257Z,1012.47
2018-04-27T02:45:12.237Z,1012.47
2018-04-27T02:46:12.217Z,1012.45
2018-04-27T02:47:12.199Z,1012.46
2018-04-27T02:48:12.186Z,1012.45
2018-04-27T02:49:12.159Z,1012.46
2018-04-27T02:50:12.139Z,1012.49
2018-04-27T02:51:12.118Z,1012.44
2018-04-27T02:52:12.105Z,1012.43
2018-04-27T02:53:12.080Z,1012.42
2018-04-27T02:54:12.063Z,1012.42
2018-04-27T02:55:12.047Z,1012.40
2018-04-27T02:56:12.021Z,1012.40
2018-04-27T02:57:12.002Z,1012.45
2018-04-27T02:58:11.987Z,1012.38
2018-04-27T02:59:11.972Z,1012.41
2018-04-27T03:00:11.945Z,1012.39
2018-04-27T03:01:11.927Z,1012.36
2018-04-27T03:02:11.904Z,1012.37
2018-04-27T03:03:11.886Z,1012.39
2018-04-27T03:04:11.866Z,1012.41
2018-04-27T03:05:11.844Z,1012.42
2018-04-27T03:06:11.829Z,1012.44
2018-04-27T03:07:11.817Z,1012.38
2018-04-27T03:08:11.786Z,1012.39
2018-04-27T03:09:11.770Z,1012.43
2018-04-27T03:10:11.800Z,1012.45
2018-04-27T03:11:11.725Z,1012.50
2018-04-27T03:12:11.705Z,1012.50
2018-04-27T03:13:11.686Z,1012.49
2018-04-27T03:14:11.667Z,1012.47
2018-04-27T03:15:11.646Z,1012.50
2018-04-27T03:16:11.627Z,1012.53
2018-04-27T03:17:11.606Z,1012.51
2018-04-27T03:18:11.591Z,1012.48
2018-04-27T03:19:11.567Z,1012.44
2018-04-27T03:20:11.548Z,1012.46
2018-04-27T03:21:11.527Z,1012.48
2018-04-27T03:22:11.511Z,1012.48
2018-04-27T03:23:11.487Z,1012.46
2018-04-27T03:24:11.469Z,1012.44
2018-04-27T03:25:11.448Z,1012.45
2018-04-27T03:26:11.432Z,1012.42
2018-04-27T03:27:11.407Z,1012.44
2018-04-27T03:28:11.387Z,1012.39
2018-04-27T03:29:11.368Z,1012.39
2018-04-27T03:30:11.353Z,1012.40
2018-04-27T03:31:11.330Z,1012.43
2018-04-27T03:32:11.312Z,1012.41
2018-04-27T03:33:11.288Z,1012.41
2018-04-27T03:34:11.322Z,1012.43
2018-04-27T03:35:11.253Z,1012.38
2018-04-27T03:36:11.228Z,1012.37
2018-04-27T03:37:11.212Z,1012.40
2018-04-27T03:38:11.187Z,1012.42
2018-04-27T03:39:11.167Z,1012.46
2018-04-27T03:40:11.154Z,1012.42
2018-04-27T03:41:11.129Z,1012.45
2018-04-27T03:42:11.107Z,1012.45
2018-04-27T03:43:11.087Z,1012.45
2018-04-27T03:44:11.068Z,1012.41
2018-04-27T03:45:11.048Z,1012.45
2018-04-27T03:46:11.028Z,1012.44
2018-04-27T03:47:11.007Z,1012.41
2018-04-27T03:48:10.985Z,1012.40
2018-04-27T03:49:10.965Z,1012.37
2018-04-27T03:50:10.946Z,1012.40
2018-04-27T03:51:10.924Z,1012.42
2018-04-27T03:52:10.905Z,1012.47
2018-04-27T03:53:10.889Z,1012.41
2018-04-27T03:54:10.863Z,1012.44
2018-04-27T03:55:10.844Z,1012.48
2018-04-27T03:56:10.828Z,1012.48
2018-04-27T03:57:10.805Z,1012.47
2018-04-27T03:58:10.784Z,1012.44
2018-04-27T03:59:10.772Z,1012.47
2018-04-27T04:00:10.745Z,1012.51
2018-04-27T04:01:10.735Z,1012.49
2018-04-27T04:02:10.703Z,1012.49
2018-04-27T04:03:10.686Z,1012.47
2018-04-27T04:04:10.663Z,1012.48
2018-04-27T04:05:10.643Z,1012.48
2018-04-27T04:06:10.623Z,1012.48
2018-04-27T04:07:10.600Z,1012.49
2018-04-27T04:08:10.583Z,1012.53
2018-04-27T04:09:10.566Z,1012.53
2018-04-27T04:10:10.542Z,1012.52
2018-04-27T04:11:10.525Z,1012.54
2018-04-27T04:12:10.501Z,1012.60
2018-04-27T04:13:10.491Z,1012.59
2018-04-27T04:14:10.465Z,1012.59
2018-04-27T04:15:10.440Z,1012.63
2018-04-27T04:16:10.420Z,1012.64
2018-04-27T04:17:10.402Z,1012.66
2018-04-27T04:18:10.378Z,1012.63
2018-04-27T04:19:10.359Z,1012.65
2018-04-27T04:20:10.340Z,1012.64
2018-04-27T04:21:10.317Z,1012.68
2018-04-27T04:22:10.299Z,1012.69
2018-04-27T04:23:10.281Z,1012.66
2018-04-27T04:24:10.257Z,1012.70
2018-04-27T04:25:10.245Z,1012.70
2018-04-27T04:26:10.217Z,1012.70
2018-04-27T04:27:10.195Z,1012.70
2018-04-27T04:28:10.178Z,1012.74
2018-04-27T04:29:10.156Z,1012.72
2018-04-27T04:30:10.136Z,1012.76
2018-04-27T04:31:10.115Z,1012.74
2018-04-27T04:32:10.094Z,1012.79
2018-04-27T04:33:10.073Z,1012.79
2018-04-27T04:34:10.055Z,1012.78
2018-04-27T04:35:10.035Z,1012.79
2018-04-27T04:36:10.015Z,1012.79
2018-04-27T04:37:09.996Z,1012.78
2018-04-27T04:38:09.990Z,1012.77
2018-04-27T04:39:09.960Z,1012.82
2018-04-27T04:40:09.934Z,1012.77
2018-04-27T04:41:09.914Z,1012.79
2018-04-27T04:42:09.894Z,1012.78
2018-04-27T04:43:09.877Z,1012.78
2018-04-27T04:44:09.849Z,1012.83
2018-04-27T04:45:09.921Z,1012.76
2018-04-27T04:46:09.812Z,1012.81
2018-04-27T04:47:09.791Z,1012.76
2018-04-27T04:48:09.771Z,1012.82
2018-04-27T04:49:09.756Z,1012.81
2018-04-27T04:50:09.732Z,1012.83
2018-04-27T04:51:09.710Z,1012.83
2018-04-27T04:52:09.691Z,1012.86
2018-04-27T04:53:09.669Z,1012.87
2018-04-27T04:54:09.657Z,1012.92
2018-04-27T04:55:09.628Z,1012.92
2018-04-27T04:56:09.611Z,1012.93
2018-04-27T04:57:09.590Z,1012.91
2018-04-27T04:58:09.572Z,1012.92
2018-04-27T04:59:09.550Z,1012.93
2018-04-27T05:00:09.533Z,1012.95
2018-04-27T05:01:09.512Z,1012.95
2018-04-27T05:02:09.495Z,1012.97
2018-04-27T05:03:09.472Z,1012.99
2018-04-27T05:04:09.451Z,1013.00
2018-04-27T05:05:09.444Z,1013.00
2018-04-27T05:06:09.411Z,1013.03
2018-04-27T05:07:09.391Z,1013.08
2018-04-27T05:08:09.373Z,1013.05
2018-04-27T05:09:09.352Z,1013.05
2018-04-27T05:10:09.333Z,1013.04
2018-04-27T05:11:09.312Z,1013.06
2018-04-27T05:12:09.293Z,1013.09
2018-04-27T05:13:09.273Z,1013.09
2018-04-27T05:14:09.255Z,1013.10
2018-04-27T05:15:09.235Z,1013.07
2018-04-27T05:16:09.220Z,1013.08
2018-04-27T05:17:09.195Z,1013.07
2018-04-27T05:18:09.178Z,1013.11
2018-04-27T05:19:09.157Z,1013.12
2018-04-27T05:20:09.137Z,1013.18
2018-04-27T05:21:09.123Z,1013.14
2018-04-27T05:22:09.103Z,1013.18
2018-04-27T05:23:09.080Z,1013.17
2018-04-27T05:24:09.082Z,1013.18
2018-04-27T05:25:09.043Z,1013.18
2018-04-27T05:26:09.027Z,1013.16
2018-04-27T05:27:09.003Z,1013.22
2018-04-27T05:28:08.994Z,1013.23
2018-04-27T05:29:08.967Z,1013.24
2018-04-27T05:30:08.952Z,1013.23
2018-04-27T05:31:08.927Z,1013.28
2018-04-27T05:32:08.915Z,1013.27
2018-04-27T05:33:08.887Z,1013.26
2018-04-27T05:34:08.871Z,1013.26
2018-04-27T05:35:08.856Z,1013.25
2018-04-27T05:36:08.832Z,1013.25
2018-04-27T05:37:08.814Z,1013.25
2018-04-27T05:38:08.795Z,1013.24
2018-04-27T05:39:08.773Z,1013.26
2018-04-27T05:40:08.759Z,1013.20
2018-04-27T05:41:08.740Z,1013.24
2018-04-27T05:42:08.717Z,1013.21
2018-04-27T05:43:08.700Z,1013.24
2018-04-27T05:44:08.689Z,1013.26
2018-04-27T05:45:08.664Z,1013.23
2018-04-27T05:46:08.644Z,1013.24
2018-04-27T05:47:08.625Z,1013.23
2018-04-27T05:48:08.609Z,1013.23
2018-04-27T05:49:08.590Z,1013.23
2018-04-27T05:50:08.603Z,1013.22
2018-04-27T05:51:08.553Z,1013.21
2018-04-27T05:52:08.539Z,1013.18
2018-04-27T05:53:08.513Z,1013.18
2018-04-27T05:54:08.494Z,1013.18
2018-04-27T05:55:08.488Z,1013.20
2018-04-27T05:56:08.455Z,1013.19
2018-04-27T05:57:08.438Z,1013.17
2018-04-27T05:58:08.425Z,1013.17
2018-04-27T05:59:08.404Z,1013.12
2018-04-27T06:00:08.382Z,1013.14
2018-04-27T06:01:08.372Z,1013.16
2018-04-27T06:02:08.346Z,1013.13
2018-04-27T06:03:08.328Z,1013.16
2018-04-27T06:04:08.309Z,1013.09
2018-04-27T06:05:08.291Z,1013.08
2018-04-27T06:06:08.280Z,1013.06
2018-04-27T06:07:08.254Z,1013.13
2018-04-27T06:08:08.234Z,1013.05
2018-04-27T06:09:08.222Z,1013.10
2018-04-27T06:10:08.241Z,1013.11
2018-04-27T06:11:08.180Z,1013.17
2018-04-27T06:12:08.162Z,1013.17
2018-04-27T06:13:08.149Z,1013.23
2018-04-27T06:14:08.126Z,1013.23
2018-04-27T06:15:08.109Z,1013.22
2018-04-27T06:16:08.169Z,1013.23
2018-04-27T06:17:08.072Z,1013.22
2018-04-27T06:18:08.054Z,1013.19
2018-04-27T06:19:08.036Z,1013.23
2018-04-27T06:20:08.017Z,1013.24
2018-04-27T06:21:08.004Z,1013.19
2018-04-27T06:22:07.982Z,1013.18
2018-04-27T06:23:07.972Z,1013.22
2018-04-27T06:24:07.946Z,1013.18
2018-04-27T06:25:07.929Z,1013.24
2018-04-27T06:26:07.911Z,1013.23
2018-04-27T06:27:07.894Z,1013.22
2018-04-27T06:28:07.873Z,1013.21
2018-04-27T06:29:07.858Z,1013.23
2018-04-27T06:30:07.839Z,1013.21
2018-04-27T06:31:07.825Z,1013.27
2018-04-27T06:32:07.806Z,1013.27
2018-04-27T06:33:07.787Z,1013.25
2018-04-27T06:34:07.769Z,1013.26
2018-04-27T06:35:07.750Z,1013.25
2018-04-27T06:36:07.743Z,1013.25
2018-04-27T06:37:07.722Z,1013.23
2018-04-27T06:38:07.699Z,1013.22
2018-04-27T06:39:07.687Z,1013.17
2018-04-27T06:40:07.663Z,1013.17
2018-04-27T06:41:07.648Z,1013.13
2018-04-27T06:42:07.630Z,1013.12
2018-04-27T06:43:07.609Z,1013.11
2018-04-27T06:44:07.595Z,1013.11
2018-04-27T06:45:07.575Z,1013.14
2018-04-27T06:46:07.560Z,1013.11
2018-04-27T06:47:07.542Z,1013.12
2018-04-27T06:48:07.524Z,1013.10
2018-04-27T06:49:07.507Z,1013.12
2018-04-27T06:50:07.491Z,1013.08
2018-04-27T06:51:07.474Z,1013.08
2018-04-27T06:52:07.455Z,1013.15
2018-04-27T06:53:07.439Z,1013.16
2018-04-27T06:54:07.422Z,1013.14
2018-04-27T06:55:07.411Z,1013.17
2018-04-27T06:56:07.386Z,1013.12
2018-04-27T06:57:07.376Z,1013.12
2018-04-27T06:58:07.353Z,1013.19
2018-04-27T06:59:07.393Z,1013.37
2018-04-27T07:00:07.320Z,1013.40
2018-04-27T07:01:07.303Z,1013.40
2018-04-27T07:02:07.287Z,1013.35
2018-04-27T07:03:07.269Z,1013.27
2018-04-27T07:04:07.254Z,1013.38
2018-04-27T07:05:07.411Z,1013.44
2018-04-27T07:06:07.219Z,1013.28
2018-04-27T07:07:07.205Z,1013.22
2018-04-27T07:08:07.193Z,1013.25
2018-04-27T07:09:07.172Z,1013.44
2018-04-27T07:10:07.157Z,1013.63
2018-04-27T07:11:07.141Z,1013.54
2018-04-27T07:12:07.127Z,1013.49
2018-04-27T07:13:07.118Z,1013.63
2018-04-27T07:14:07.096Z,1013.62
2018-04-27T07:15:07.085Z,1013.66
2018-04-27T07:16:07.066Z,1013.57
2018-04-27T07:17:07.087Z,1013.32
2018-04-27T07:18:07.041Z,1013.35
2018-04-27T07:19:07.026Z,1013.34
2018-04-27T07:20:07.013Z,1013.33
2018-04-27T07:21:07.009Z,1013.36
2018-04-27T07:22:07.058Z,1013.35
2018-04-27T07:23:06.979Z,1013.36
2018-04-27T07:24:06.962Z,1013.47
2018-04-27T07:25:06.952Z,1013.70
2018-04-27T07:26:06.939Z,1013.63
2018-04-27T07:27:06.927Z,1013.65
2018-04-27T07:28:06.916Z,1013.70
2018-04-27T07:29:06.903Z,1013.59
2018-04-27T07:30:06.895Z,1013.53
2018-04-27T07:31:06.880Z,1013.62
2018-04-27T07:32:06.872Z,1013.59
2018-04-27T07:33:06.860Z,1013.66
2018-04-27T07:34:06.926Z,1013.82
2018-04-27T07:35:06.838Z,1013.83
2018-04-27T07:36:06.828Z,1013.80
2018-04-27T07:37:06.818Z,1013.77
2018-04-27T07:38:06.813Z,1013.68
2018-04-27T07:39:06.799Z,1013.73
2018-04-27T07:40:06.789Z,1013.74
2018-04-27T07:41:06.781Z,1013.78
2018-04-27T07:42:06.771Z,1013.79
2018-04-27T07:43:06.760Z,1013.78
2018-04-27T07:44:06.752Z,1013.88
2018-04-27T07:45:06.745Z,1013.93
2018-04-27T07:46:06.737Z,1014.07
2018-04-27T07:47:06.726Z,1013.98
2018-04-27T07:48:06.722Z,1014.04
2018-04-27T07:49:06.718Z,1013.91
2018-04-27T07:50:06.706Z,1014.01
2018-04-27T07:51:06.703Z,1014.17
2018-04-27T07:52:06.690Z,1013.84
2018-04-27T07:53:06.681Z,1013.83
2018-04-27T07:54:06.676Z,1013.91
2018-04-27T07:55:06.674Z,1013.73
2018-04-27T07:56:06.666Z,1013.96
2018-04-27T07:57:06.659Z,1013.84
2018-04-27T07:58:06.651Z,1013.92
2018-04-27T07:59:06.646Z,1013.79
2018-04-27T08:00:06.649Z,1013.87
2018-04-27T08:01:06.636Z,1013.98
2018-04-27T08:02:06.687Z,1014.03
2018-04-27T08:03:06.624Z,1014.05
2018-04-27T08:04:06.617Z,1013.92
2018-04-27T08:05:06.616Z,1014.02
2018-04-27T08:06:06.608Z,1013.97
2018-04-27T08:07:06.610Z,1013.98
2018-04-27T08:08:06.603Z,1013.99
2018-04-27T08:09:06.596Z,1014.06
2018-04-27T08:10:06.593Z,1014.19
2018-04-27T08:11:06.588Z,1013.82
2018-04-27T08:12:06.587Z,1013.88
2018-04-27T08:13:06.582Z,1013.84
2018-04-27T08:14:06.578Z,1014.06
2018-04-27T08:15:06.574Z,1014.05
2018-04-27T08:16:06.569Z,1014.09
2018-04-27T08:17:06.574Z,1014.02
2018-04-27T08:18:06.570Z,1013.88
2018-04-27T08:19:06.565Z,1013.90
2018-04-27T08:20:06.564Z,1014.05
2018-04-27T08:21:06.560Z,1014.11
2018-04-27T08:22:06.558Z,1014.09
2018-04-27T08:23:06.553Z,1014.16
2018-04-27T08:24:06.550Z,1014.27
2018-04-27T08:25:06.549Z,1014.21
2018-04-27T08:26:06.548Z,1014.23
2018-04-27T08:27:06.545Z,1014.32
2018-04-27T08:28:06.545Z,1014.30
2018-04-27T08:29:06.542Z,1014.35
2018-04-27T08:30:06.540Z,1014.21
2018-04-27T08:31:06.543Z,1014.23
2018-04-27T08:32:06.539Z,1014.16
2018-04-27T08:33:06.542Z,1014.26
2018-04-27T08:34:06.537Z,1014.22
2018-04-27T08:35:06.536Z,1014.24
2018-04-27T08:36:06.538Z,1014.25
2018-04-27T08:37:06.533Z,1014.19
2018-04-27T08:38:06.535Z,1014.23
2018-04-27T08:39:06.533Z,1014.05
2018-04-27T08:40:06.538Z,1014.04
2018-04-27T08:41:06.534Z,1013.92
2018-04-27T08:42:06.532Z,1013.94
2018-04-27T08:43:06.540Z,1014.08
2018-04-27T08:44:06.531Z,1014.24
2018-04-27T08:45:06.531Z,1014.14
2018-04-27T08:46:06.529Z,1014.16
2018-04-27T08:47:06.535Z,1014.18
2018-04-27T08:48:06.536Z,1014.24
2018-04-27T08:49:06.532Z,1014.19
2018-04-27T08:50:06.540Z,1014.18
2018-04-27T08:51:06.530Z,1014.12
2018-04-27T08:52:06.530Z,1014.23
2018-04-27T08:53:06.531Z,1014.22
2018-04-27T08:54:06.531Z,1014.22
2018-04-27T08:55:06.570Z,1014.05
2018-04-27T08:56:06.530Z,1014.24
2018-04-27T08:57:06.532Z,1014.26
2018-04-27T08:58:06.534Z,1014.19
2018-04-27T08:59:06.534Z,1014.20
2018-04-27T09:00:06.537Z,1014.23
2018-04-27T09:01:06.537Z,1014.30
2018-04-27T09:02:06.533Z,1014.37
2018-04-27T09:03:06.535Z,1014.41
2018-04-27T09:04:06.537Z,1014.25
2018-04-27T09:05:06.539Z,1014.26
2018-04-27T09:06:06.538Z,1014.14
2018-04-27T09:07:06.539Z,1014.03
2018-04-27T09:08:06.547Z,1014.18
2018-04-27T09:09:06.542Z,1014.06
2018-04-27T09:10:06.542Z,1014.01
2018-04-27T09:11:06.549Z,1014.38
2018-04-27T09:12:06.542Z,1014.43
2018-04-27T09:13:06.543Z,1014.28
2018-04-27T09:14:06.546Z,1014.46
2018-04-27T09:15:06.546Z,1014.44
2018-04-27T09:16:06.550Z,1014.50
2018-04-27T09:17:06.552Z,1014.41
2018-04-27T09:18:06.549Z,1014.29
2018-04-27T09:19:06.548Z,1014.50
2018-04-27T09:20:06.551Z,1014.43
2018-04-27T09:21:06.556Z,1014.34
2018-04-27T09:22:06.553Z,1014.16
2018-04-27T09:23:06.554Z,1014.45
2018-04-27T09:24:06.554Z,1014.44
2018-04-27T09:25:06.556Z,1014.40
2018-04-27T09:26:06.557Z,1014.37
2018-04-27T09:27:06.560Z,1014.40
2018-04-27T09:28:06.562Z,1014.40
2018-04-27T09:29:06.568Z,1014.40
2018-04-27T09:30:06.566Z,1014.44
2018-04-27T09:31:06.568Z,1014.48
2018-04-27T09:32:06.569Z,1014.54
2018-04-27T09:33:06.569Z,1014.57
2018-04-27T09:34:06.569Z,1014.48
2018-04-27T09:35:06.573Z,1014.44
2018-04-27T09:36:06.577Z,1013.17
2018-04-27T09:37:06.574Z,1013.83
2018-04-27T09:38:06.577Z,1013.17
2018-04-27T09:39:06.581Z,1014.47
2018-04-27T09:40:06.585Z,1014.47
2018-04-27T09:41:06.587Z,1014.48
2018-04-27T09:42:06.585Z,1014.49
2018-04-27T09:43:06.589Z,1014.53
2018-04-27T09:44:06.591Z,1014.50
2018-04-27T09:45:06.594Z,1014.43
2018-04-27T09:46:06.596Z,1014.44
2018-04-27T09:47:06.596Z,1014.46
2018-04-27T09:48:06.599Z,1014.53
2018-04-27T09:49:06.604Z,1014.48
2018-04-27T09:50:06.601Z,1014.48
2018-04-27T09:51:06.605Z,1014.48
2018-04-27T09:52:06.613Z,1014.73
2018-04-27T09:53:06.607Z,1014.61
2018-04-27T09:54:06.611Z,1014.63
2018-04-27T09:55:06.614Z,1014.71
2018-04-27T09:56:06.615Z,1013.06
2018-04-27T09:57:06.626Z,1013.17
2018-04-27T09:58:06.632Z,1014.82
2018-04-27T09:59:06.622Z,1014.88
2018-04-27T10:00:06.621Z,1014.97
2018-04-27T10:01:06.630Z,1014.96
2018-04-27T10:02:06.631Z,1015.00
2018-04-27T10:03:06.631Z,1014.98
2018-04-27T10:04:06.630Z,1014.95
2018-04-27T10:05:06.636Z,1014.96
2018-04-27T10:06:06.637Z,1015.05
2018-04-27T10:07:06.641Z,1014.97
2018-04-27T10:08:06.642Z,1014.98
2018-04-27T10:09:06.647Z,1015.06
2018-04-27T10:10:06.648Z,1015.18
2018-04-27T10:11:06.649Z,1015.18
2018-04-27T10:12:06.653Z,1015.18
2018-04-27T10:13:06.659Z,1015.26
2018-04-27T10:14:06.662Z,1015.28
2018-04-27T10:15:06.744Z,1015.38
2018-04-27T10:16:06.667Z,1015.38
2018-04-27T10:17:06.670Z,1015.51
2018-04-27T10:18:06.671Z,1015.65
2018-04-27T10:19:06.679Z,1015.67
2018-04-27T10:20:06.680Z,1015.55
2018-04-27T10:21:06.686Z,1015.52
2018-04-27T10:22:06.686Z,1014.13
2018-04-27T10:23:06.686Z,1015.75
2018-04-27T10:24:06.691Z,1015.51
2018-04-27T10:25:06.697Z,1015.54
2018-04-27T10:26:06.699Z,1015.69
2018-04-27T10:27:06.701Z,1015.80
2018-04-27T10:28:06.704Z,1015.72
2018-04-27T10:29:06.708Z,1015.88
2018-04-27T10:30:06.715Z,1015.90
2018-04-27T10:31:06.716Z,1015.95
2018-04-27T10:32:06.720Z,1016.29
2018-04-27T10:33:06.727Z,1016.25
2018-04-27T10:34:06.728Z,1016.17
2018-04-27T10:35:06.728Z,1016.04
2018-04-27T10:36:06.731Z,1012.60
2018-04-27T10:37:06.734Z,1012.66
2018-04-27T10:38:06.741Z,1015.69
2018-04-27T10:39:06.741Z,1012.78
2018-04-27T10:40:06.745Z,1012.75
2018-04-27T10:41:06.747Z,1016.21
2018-04-27T10:42:06.804Z,1016.38
2018-04-27T10:43:06.835Z,1016.33
2018-04-27T10:44:06.754Z,1016.56
2018-04-27T10:45:06.763Z,1016.57
2018-04-27T10:46:06.760Z,1016.60
2018-04-27T10:47:06.764Z,1016.66
2018-04-27T10:48:06.817Z,1016.76
2018-04-27T10:49:06.769Z,1016.86
2018-04-27T10:50:06.770Z,1016.12
2018-04-27T10:51:06.776Z,1012.64
2018-04-27T10:52:06.778Z,1012.63
2018-04-27T10:53:06.784Z,1015.32
2018-04-27T10:54:06.785Z,1016.47
2018-04-27T10:55:06.786Z,1016.49
2018-04-27T10:56:06.881Z,1016.45
2018-04-27T10:57:06.793Z,1012.57
2018-04-27T10:58:06.795Z,1012.78
2018-04-27T10:59:06.798Z,1014.62
2018-04-27T11:00:06.801Z,1016.09
2018-04-27T11:01:06.805Z,1016.12
2018-04-27T11:02:06.806Z,1016.05
2018-04-27T11:03:06.807Z,1016.07
2018-04-27T11:04:06.816Z,1014.84
2018-04-27T11:05:06.818Z,1015.96
2018-04-27T11:06:06.815Z,1016.14
2018-04-27T11:07:06.826Z,1015.47
2018-04-27T11:08:06.821Z,1012.70
2018-04-27T11:09:06.825Z,1012.75
2018-04-27T11:10:06.828Z,1015.67
2018-04-27T11:11:06.907Z,1015.55
2018-04-27T11:12:06.831Z,1015.42
2018-04-27T11:13:06.837Z,1015.30
2018-04-27T11:14:06.843Z,1015.30
2018-04-27T11:15:06.841Z,1015.26
2018-04-27T11:16:06.845Z,1014.86
2018-04-27T11:17:06.886Z,1012.69
2018-04-27T11:18:06.851Z,1013.70
2018-04-27T11:19:06.854Z,1014.24
2018-04-27T11:20:06.915Z,1014.87
2018-04-27T11:21:06.864Z,1014.41
2018-04-27T11:22:06.862Z,1014.53
2018-04-27T11:23:06.864Z,1012.41
2018-04-27T11:24:06.867Z,1012.31
2018-04-27T11:25:06.871Z,1012.35
2018-04-27T11:26:06.905Z,1012.40
2018-04-27T11:27:06.876Z,1012.42
2018-04-27T11:28:06.880Z,1014.35
2018-04-27T11:29:06.880Z,1012.17
2018-04-27T11:30:06.884Z,1013.93
2018-04-27T11:31:06.885Z,1011.99
2018-04-27T11:32:06.885Z,1011.93
2018-04-27T11:33:06.889Z,1011.84
2018-04-27T11:34:06.892Z,1011.73
2018-04-27T11:35:06.998Z,1011.76
2018-04-27T11:36:06.893Z,1011.94
2018-04-27T11:37:06.894Z,1013.74
2018-04-27T11:38:06.899Z,1013.20
2018-04-27T11:39:06.897Z,1013.74
2018-04-27T11:40:06.898Z,1013.65
2018-04-27T11:41:06.900Z,1013.66
2018-04-27T11:42:06.900Z,1013.72
2018-04-27T11:43:06.902Z,1013.64
2018-04-27T11:44:06.903Z,1013.71
2018-04-27T11:45:06.905Z,1013.66
2018-04-27T11:46:06.907Z,1013.55
2018-04-27T11:47:06.906Z,1013.51
2018-04-27T11:48:06.916Z,1013.46
2018-04-27T11:49:06.920Z,1013.52
2018-04-27T11:50:06.914Z,1013.39
2018-04-27T11:51:06.925Z,1013.34
2018-04-27T11:52:06.919Z,1013.32
2018-04-27T11:53:06.925Z,1013.42
2018-04-27T11:54:06.925Z,1013.39
2018-04-27T11:55:06.926Z,1013.33
2018-04-27T11:56:06.932Z,1011.88
2018-04-27T11:57:06.932Z,1012.01
2018-04-27T11:58:06.934Z,1011.97
2018-04-27T11:59:06.937Z,1013.27
2018-04-27T12:00:06.939Z,1013.31
2018-04-27T12:01:06.942Z,1013.22
2018-04-27T12:02:06.945Z,1013.17
2018-04-27T12:03:06.947Z,1013.20
2018-04-27T12:04:06.948Z,1013.10
2018-04-27T12:05:06.955Z,1013.11